Time;durP1;ratioP1;P1;durP2;ratioP2;P2;SDS_P1;SDS_P2;PMS_P1;PMS_P2;Temp;Humidity;BMP_temperature;BMP_pressure;BME280_temperature;BME280_humidity;BME280_pressure;Samples;Min_cycle;Max_cycle;Signal;HPM_P1;HPM_P2
2022/08/15 00:00:37;;;;;;;;;17.25;16.25;;;;;24.90;55.64;99989.84;2104827;27;47537;-63
2022/08/15 00:01:37;;;;;;;;;17.00;17.00;;;;;24.88;56.19;99986.44;2112554;27;45538;-64
2022/08/15 00:02:41;;;;;;;;;17.75;17.00;;;;;24.88;55.80;99989.16;2112470;27;47560;-62
2022/08/15 00:03:48;;;;;;;;;17.00;17.00;;;;;24.87;56.03;99984.72;2104698;27;47764;-64
2022/08/15 00:04:49;;;;;;;;;18.80;18.40;;;;;24.88;56.22;99989.16;2104887;27;47445;-64
2022/08/15 00:05:49;;;;;;;;;18.00;18.00;;;;;24.85;56.02;99990.31;2104567;27;47762;-63
2022/08/15 00:06:50;;;;;;;;;15.50;15.00;;;;;24.85;56.07;99990.31;2104587;27;47360;-64
2022/08/15 00:07:52;;;;;;;;;19.20;18.20;;;;;24.86;56.33;99986.59;2104584;27;47626;-64
2022/08/15 00:08:58;;;;;;;;;13.40;13.40;;;;;24.89;56.34;99988.16;2103981;27;48006;-64
2022/08/15 00:09:58;;;;;;;;;22.00;20.20;;;;;24.90;55.70;99987.16;2103867;28;47986;-64
2022/08/15 00:11:04;;;;;;;;;15.50;15.25;;;;;24.90;56.21;99979.91;2103751;28;47890;-63
2022/08/15 00:12:04;;;;;;;;;17.80;17.80;;;;;24.92;55.68;99985.19;2104055;28;47201;-63
2022/08/15 00:13:11;;;;;;;;;15.75;15.75;;;;;24.91;55.70;99980.75;2103656;28;47682;-63
2022/08/15 00:14:29;;;;;;;;;21.00;20.00;;;;;24.91;55.87;99984.31;2104484;27;47924;-63
2022/08/15 00:15:31;;;;;;;;;17.80;17.80;;;;;24.92;56.00;99982.47;2104327;27;48082;-64
2022/08/15 00:16:39;;;;;;;;;17.40;16.20;;;;;24.92;55.98;99980.59;2104412;27;46436;-63
2022/08/15 00:17:42;;;;;;;;;20.00;18.00;;;;;24.94;55.60;99981.31;2103792;28;47271;-64
2022/08/15 00:18:42;;;;;;;;;16.00;15.40;;;;;24.95;55.87;99985.72;2104006;28;47226;-62
2022/08/15 00:19:47;;;;;;;;;19.75;18.00;;;;;24.95;55.89;99976.75;2104570;27;47474;-64
2022/08/15 00:20:48;;;;;;;;;20.20;18.00;;;;;24.95;56.08;99980.31;2103174;28;47599;-64
2022/08/15 00:21:52;;;;;;;;;16.60;16.60;;;;;24.95;55.53;99980.31;2095700;28;47424;-64
2022/08/15 00:22:53;;;;;;;;;17.00;16.80;;;;;24.95;55.62;99977.59;2103872;28;47603;-64
2022/08/15 00:23:55;;;;;;;;;16.20;14.60;;;;;24.98;55.60;99981.00;2104292;27;47884;-64
2022/08/15 00:24:55;;;;;;;;;16.00;16.00;;;;;24.98;55.97;99972.88;2104429;27;46729;-64
2022/08/15 00:25:58;;;;;;;;;18.25;18.25;;;;;24.98;55.37;99976.44;2104279;27;47864;-64
2022/08/15 00:27:01;;;;;;;;;16.60;16.60;;;;;24.98;55.76;99975.59;2104369;27;47647;-64
2022/08/15 00:28:02;;;;;;;;;17.60;17.60;;;;;24.99;55.39;99971.88;2103885;28;47488;-65
2022/08/15 00:29:04;;;;;;;;;17.00;17.00;;;;;24.99;55.68;99969.16;2103828;28;47762;-64
2022/08/15 00:30:06;;;;;;;;;20.80;19.80;;;;;25.00;55.95;99974.44;2104659;27;47366;-64
2022/08/15 00:31:10;;;;;;;;;16.40;15.40;;;;;25.01;55.87;99973.47;2103682;28;48099;-62
2022/08/15 00:32:16;;;;;;;;;12.40;11.20;;;;;25.02;55.63;99980.59;2103683;28;47544;-63
2022/08/15 00:33:17;;;;;;;;;16.20;15.20;;;;;25.03;55.84;99973.31;2104522;27;47578;-65
2022/08/15 00:34:18;;;;;;;;;16.40;16.40;;;;;25.05;55.77;99974.06;2104236;27;47437;-63
2022/08/15 00:35:36;;;;;;;;;19.25;18.00;;;;;25.05;55.48;99972.19;2104351;27;47334;-64
2022/08/15 00:36:36;;;;;;;;;18.00;18.00;;;;;25.05;55.33;99976.78;2104362;27;45833;-64
2022/08/15 00:37:37;;;;;;;;;21.00;19.00;;;;;25.05;55.73;99974.91;2104391;27;47901;-64
2022/08/15 00:38:37;;;;;;;;;15.00;15.00;;;;;25.06;55.50;99971.19;2104222;27;46946;-65
2022/08/15 00:39:39;;;;;;;;;18.25;18.00;;;;;25.09;55.29;99980.91;2104367;27;47238;-64
2022/08/15 00:42:08;;;;;;;;;19.00;18.00;;;;;25.05;55.29;99977.63;2103680;28;47267;-63
2022/08/15 00:43:09;;;;;;;;;16.80;16.00;;;;;25.02;55.19;99974.31;2095721;28;47328;-64
2022/08/15 00:44:16;;;;;;;;;16.40;15.80;;;;;25.01;55.56;99964.47;2103735;28;47894;-64
2022/08/15 00:45:20;;;;;;;;;16.40;15.20;;;;;25.00;55.28;99968.16;2104193;27;48159;-64
2022/08/15 00:46:20;;;;;;;;;19.20;19.20;;;;;24.98;55.57;99971.00;2104504;27;47761;-63
2022/08/15 00:47:22;;;;;;;;;18.25;18.25;;;;;24.99;55.84;99967.28;2104423;27;47694;-61
2022/08/15 00:48:41;;;;;;;;;19.80;19.60;;;;;25.01;55.85;99970.75;2104234;27;47938;-64
2022/08/15 00:49:43;;;;;;;;;16.20;15.60;;;;;25.00;55.28;99968.16;2104249;27;45856;-64
2022/08/15 00:50:43;;;;;;;;;18.40;18.40;;;;;25.02;55.50;99969.75;2104243;27;47252;-64
2022/08/15 00:51:50;;;;;;;;;18.00;16.25;;;;;25.03;55.56;99963.34;2103960;27;48028;-65
2022/08/15 00:52:50;;;;;;;;;20.40;19.20;;;;;25.04;55.64;99972.34;2104319;27;47379;-62
2022/08/15 00:54:02;;;;;;;;;17.25;17.25;;;;;25.05;55.21;99969.47;2102965;27;47981;-63
2022/08/15 00:55:10;;;;;;;;;21.40;19.80;;;;;25.03;55.20;99963.34;2103462;28;47793;-64
2022/08/15 00:56:12;;;;;;;;;17.80;16.40;;;;;25.05;55.41;99969.47;2096408;28;46573;-63
2022/08/15 00:57:27;;;;;;;;;18.60;18.60;;;;;25.04;55.04;99961.50;2103614;28;47729;-64
2022/08/15 00:58:27;;;;;;;;;21.60;19.80;;;;;25.04;54.92;99961.50;2104524;27;47510;-64
2022/08/15 00:59:32;;;;;;;;;22.00;22.00;;;;;25.04;55.36;99964.19;2104243;27;47475;-64
2022/08/15 01:00:41;;;;;;;;;19.20;19.20;;;;;25.04;55.63;99966.91;2104227;27;47450;-63
2022/08/15 01:01:44;;;;;;;;;19.00;18.60;;;;;25.02;55.65;99958.88;2104250;27;47977;-65
2022/08/15 01:02:45;;;;;;;;;19.80;19.40;;;;;25.01;55.45;99965.31;2104325;27;47684;-63
2022/08/15 01:03:48;;;;;;;;;19.20;19.20;;;;;25.01;55.35;99962.59;2104062;27;47607;-63
2022/08/15 01:04:49;;;;;;;;;23.00;20.60;;;;;25.01;54.98;99961.75;2104132;27;47527;-63
2022/08/15 01:05:53;;;;;;;;;20.00;19.80;;;;;25.00;55.19;99966.28;2104079;28;48231;-63
2022/08/15 01:06:58;;;;;;;;;22.00;22.00;;;;;24.99;55.05;99961.00;2103205;28;48187;-63
2022/08/15 01:07:58;;;;;;;;;18.80;17.00;;;;;24.99;55.00;99966.44;2104088;27;46650;-64
2022/08/15 01:09:01;;;;;;;;;16.00;16.00;;;;;24.98;55.03;99962.00;2104288;27;47980;-64
2022/08/15 01:10:05;;;;;;;;;20.20;20.20;;;;;24.97;55.15;99969.31;2104030;27;47945;-63
2022/08/15 01:11:15;;;;;;;;;20.20;20.20;;;;;24.97;55.33;99963.03;2104184;27;47460;-63
2022/08/15 01:12:19;;;;;;;;;17.80;17.80;;;;;24.95;55.02;99968.59;2104357;27;47850;-65
2022/08/15 01:13:20;;;;;;;;;18.20;18.20;;;;;24.94;54.42;99966.88;2104145;27;47750;-63
2022/08/15 01:14:22;;;;;;;;;21.50;21.50;;;;;24.92;54.37;99964.31;2104221;27;47468;-64
2022/08/15 01:15:23;;;;;;;;;21.20;20.00;;;;;24.89;53.85;99967.28;2104103;27;47602;-64
2022/08/15 01:16:25;;;;;;;;;20.00;19.40;;;;;24.87;54.30;99971.16;2103430;28;48005;-65
2022/08/15 01:17:29;;;;;;;;;20.20;19.60;;;;;24.83;54.36;99965.16;2103434;28;47729;-63
2022/08/15 01:18:30;;;;;;;;;20.20;19.20;;;;;24.83;54.59;99964.31;2103634;28;46158;-65
2022/08/15 01:19:35;;;;;;;;;21.25;19.00;;;;;24.83;54.93;99967.03;2103474;28;47736;-63
2022/08/15 01:20:36;;;;;;;;;18.40;16.80;;;;;24.83;54.52;99965.16;2104058;27;47582;-63
2022/08/15 01:21:50;;;;;;;;;17.60;17.60;;;;;24.83;54.30;99965.16;2104652;27;46075;-62
2022/08/15 01:22:56;;;;;;;;;17.00;16.20;;;;;24.83;54.83;99964.31;2104163;27;46843;-61
2022/08/15 01:24:30;;;;;;;;;20.80;20.00;;;;;24.83;54.15;99961.59;2104159;27;47891;-63
2022/08/15 01:25:44;;;;;;;;;18.20;17.00;;;;;24.81;54.17;99960.88;2088731;28;47930;-65
2022/08/15 01:26:46;;;;;;;;;18.20;18.20;;;;;24.78;54.37;99962.03;2094756;28;47945;-65
2022/08/15 01:28:00;;;;;;;;;20.20;19.00;;;;;24.76;54.37;99964.00;2094420;28;47547;-64
2022/08/15 01:29:02;;;;;;;;;17.60;17.60;;;;;24.77;54.07;99959.44;2084775;28;47390;-63
2022/08/15 01:30:06;;;;;;;;;17.80;17.80;;;;;24.77;54.38;99962.16;2085747;28;47798;-64
2022/08/15 01:31:13;;;;;;;;;17.40;17.40;;;;;24.77;54.00;99968.44;2085046;28;47589;-63
2022/08/15 01:32:14;;;;;;;;;18.60;18.20;;;;;24.77;54.76;99970.28;2094755;28;46421;-62
2022/08/15 01:33:15;;;;;;;;;19.50;19.25;;;;;24.76;53.99;99964.00;2094956;28;47489;-63
2022/08/15 01:34:17;;;;;;;;;19.40;18.60;;;;;24.75;54.19;99967.72;2094612;28;47618;-64
2022/08/15 01:35:17;;;;;;;;;18.80;18.80;;;;;24.74;54.07;99967.88;2085707;28;47197;-62
2022/08/15 01:36:18;;;;;;;;;20.00;20.00;;;;;24.74;54.16;99967.88;2078017;28;46872;-63
2022/08/15 01:37:20;;;;;;;;;17.40;17.40;;;;;24.71;54.32;99974.44;2085948;28;47499;-64
2022/08/15 01:38:33;;;;;;;;;17.60;17.20;;;;;24.69;53.48;99960.16;2086659;28;47682;-63
2022/08/15 01:39:40;;;;;;;;;17.20;17.00;;;;;24.65;53.65;99967.75;2094259;28;47086;-64
2022/08/15 01:40:57;;;;;;;;;17.20;17.20;;;;;24.63;54.15;99964.28;2094885;28;47788;-63
2022/08/15 01:42:12;;;;;;;;;19.60;18.40;;;;;24.61;53.88;99974.41;2094491;28;47474;-64
2022/08/15 01:43:12;;;;;;;;;17.80;17.80;;;;;24.59;53.98;99973.72;2086155;28;47664;-63
2022/08/15 01:44:28;;;;;;;;;16.50;16.50;;;;;24.57;54.16;99972.16;2078593;28;47528;-63
2022/08/15 01:45:32;;;;;;;;;22.80;19.00;;;;;24.56;54.32;99975.84;2085302;28;47371;-64
2022/08/15 01:46:39;;;;;;;;;19.20;18.00;;;;;24.54;54.30;99961.59;2087081;28;47848;-64
2022/08/15 01:47:48;;;;;;;;;20.20;18.80;;;;;24.52;54.21;99966.25;2087137;28;47750;-64
2022/08/15 01:49:02;;;;;;;;;16.80;15.80;;;;;24.50;54.43;99960.97;2089365;28;47415;-62
2022/08/15 01:50:10;;;;;;;;;18.40;18.40;;;;;24.50;54.11;99968.25;2089052;28;47810;-64
2022/08/15 01:51:12;;;;;;;;;16.80;16.80;;;;;24.48;54.20;99964.84;2094576;28;47465;-62
2022/08/15 01:52:15;;;;;;;;;15.00;15.00;;;;;24.47;54.26;99963.97;2086011;28;47429;-64
2022/08/15 01:53:30;;;;;;;;;17.40;16.80;;;;;24.47;53.90;99960.41;2081557;28;45156;-63
2022/08/15 01:54:37;;;;;;;;;19.00;17.20;;;;;24.44;54.05;99964.28;2086457;28;47603;-63
2022/08/15 01:55:49;;;;;;;;;17.00;16.80;;;;;24.43;54.46;99959.00;2084860;28;47176;-63
2022/08/15 01:56:49;;;;;;;;;17.40;17.40;;;;;24.43;54.19;99959.84;2073824;28;47494;-64
2022/08/15 01:57:49;;;;;;;;;21.50;21.25;;;;;24.43;54.15;99962.56;2077471;28;47418;-64
2022/08/15 01:58:50;;;;;;;;;15.25;15.25;;;;;24.44;54.23;99960.72;2093074;28;47940;-64
2022/08/15 01:59:59;;;;;;;;;19.00;18.00;;;;;24.43;54.16;99954.44;2090119;28;46379;-64
2022/08/15 02:01:08;;;;;;;;;21.20;20.60;;;;;24.42;53.92;99958.13;2094677;28;47441;-64
2022/08/15 02:02:11;;;;;;;;;17.00;17.00;;;;;24.43;54.04;99948.16;2094720;28;47536;-64
2022/08/15 02:03:12;;;;;;;;;17.40;17.40;;;;;24.41;53.68;99951.00;2094732;28;47711;-63
2022/08/15 02:04:16;;;;;;;;;18.75;18.75;;;;;24.41;53.90;99952.84;2095505;28;47664;-63
2022/08/15 02:05:16;;;;;;;;;17.80;17.80;;;;;24.39;54.10;99950.25;2102648;28;47201;-64
2022/08/15 02:06:28;;;;;;;;;16.00;16.00;;;;;24.39;54.42;99952.13;2104244;27;47272;-64
2022/08/15 02:07:31;;;;;;;;;20.60;20.60;;;;;24.38;54.16;99953.13;2104045;27;47395;-63
2022/08/15 02:08:31;;;;;;;;;20.60;19.40;;;;;24.38;54.21;99951.25;2104074;27;47851;-64
2022/08/15 02:09:32;;;;;;;;;22.25;21.75;;;;;24.38;54.05;99948.53;2103930;27;47435;-64
2022/08/15 02:10:32;;;;;;;;;19.00;17.00;;;;;24.40;54.08;99959.28;2112085;27;47612;-64
2022/08/15 02:11:33;;;;;;;;;19.75;18.25;;;;;24.40;54.38;99951.16;2104355;27;47575;-64
2022/08/15 02:12:37;;;;;;;;;21.50;19.50;;;;;24.41;54.18;99952.84;2103867;27;47212;-64
2022/08/15 02:13:37;;;;;;;;;20.60;18.60;;;;;24.43;54.43;99950.84;2104065;27;47753;-63
2022/08/15 02:14:41;;;;;;;;;19.00;19.00;;;;;24.45;54.43;99955.13;2103473;28;47678;-63
2022/08/15 02:15:42;;;;;;;;;18.20;18.20;;;;;24.47;54.12;99955.00;2111810;27;47204;-64
2022/08/15 02:16:43;;;;;;;;;20.80;19.00;;;;;24.49;54.15;99953.00;2111579;27;47632;-64
2022/08/15 02:17:44;;;;;;;;;18.60;17.60;;;;;24.51;54.43;99953.72;2103837;27;47386;-64
2022/08/15 02:18:45;;;;;;;;;19.00;17.60;;;;;24.52;54.32;99948.16;2103799;27;47683;-64
2022/08/15 02:19:48;;;;;;;;;18.50;18.50;;;;;24.53;54.38;99947.16;2104232;27;46027;-64
2022/08/15 02:20:48;;;;;;;;;19.40;19.40;;;;;24.54;54.16;99943.44;2103815;27;47609;-62
2022/08/15 02:21:49;;;;;;;;;20.75;18.75;;;;;24.55;53.85;99942.44;2103849;27;47543;-63
2022/08/15 02:22:49;;;;;;;;;18.50;18.50;;;;;24.54;54.13;99948.03;2103073;28;47178;-64
2022/08/15 02:23:50;;;;;;;;;19.75;19.25;;;;;24.53;54.48;99944.44;2103425;28;47273;-64
2022/08/15 02:24:50;;;;;;;;;18.50;17.25;;;;;24.53;54.49;99939.03;2103678;27;47682;-63
2022/08/15 02:25:53;;;;;;;;;18.50;17.50;;;;;24.54;54.17;99948.88;2103907;27;47650;-63
2022/08/15 02:26:54;;;;;;;;;19.80;18.40;;;;;24.53;54.44;99935.47;2104268;27;47463;-63
2022/08/15 02:27:55;;;;;;;;;18.40;18.40;;;;;24.53;54.14;99936.31;2103234;28;48110;-65
2022/08/15 02:28:55;;;;;;;;;21.60;19.60;;;;;24.52;54.22;99933.72;2094625;28;47589;-63
2022/08/15 02:29:56;;;;;;;;;19.50;17.00;;;;;24.53;54.51;99938.16;2101497;28;48091;-64
2022/08/15 02:30:57;;;;;;;;;21.75;20.25;;;;;24.53;54.55;99940.88;2102126;28;47218;-63
2022/08/15 02:32:04;;;;;;;;;21.50;18.25;;;;;24.52;54.77;99939.13;2102686;27;46154;-64
2022/08/15 02:33:05;;;;;;;;;20.20;20.20;;;;;24.51;54.83;99940.16;2105355;27;47945;-64
2022/08/15 02:34:06;;;;;;;;;18.75;18.75;;;;;24.51;54.35;99941.00;2104684;28;47302;-64
2022/08/15 02:35:09;;;;;;;;;20.75;20.75;;;;;24.51;54.44;99942.84;2104928;28;47899;-64
2022/08/15 02:36:10;;;;;;;;;19.60;18.40;;;;;24.51;54.80;99940.16;2105097;27;47891;-63
2022/08/15 02:37:11;;;;;;;;;20.75;19.00;;;;;24.51;55.00;99948.28;2105118;27;48137;-63
2022/08/15 02:38:12;;;;;;;;;17.60;17.60;;;;;24.49;54.65;99944.84;2105325;27;47644;-63
2022/08/15 02:39:12;;;;;;;;;19.50;19.50;;;;;24.48;54.96;99941.28;2113038;27;47362;-64
2022/08/15 02:40:15;;;;;;;;;21.75;21.00;;;;;24.47;54.84;99941.44;2113145;27;47117;-63
2022/08/15 02:41:25;;;;;;;;;21.80;21.20;;;;;24.45;54.89;99930.72;2105731;27;47668;-64
2022/08/15 02:42:26;;;;;;;;;22.20;21.20;;;;;24.45;55.26;99925.31;2105038;27;48131;-63
2022/08/15 02:43:27;;;;;;;;;20.75;18.25;;;;;24.44;54.73;99933.59;2105214;27;47733;-63
2022/08/15 02:44:30;;;;;;;;;21.80;21.80;;;;;24.45;55.21;99935.28;2105930;27;48129;-63
2022/08/15 02:45:37;;;;;;;;;18.40;17.80;;;;;24.44;55.20;99936.28;2105202;27;47479;-63
2022/08/15 02:46:39;;;;;;;;;22.80;21.20;;;;;24.42;54.85;99931.03;2105726;27;48097;-61
2022/08/15 02:47:44;;;;;;;;;21.60;20.20;;;;;24.42;55.00;99931.03;2105403;27;47735;-63
2022/08/15 02:48:49;;;;;;;;;17.80;16.60;;;;;24.41;55.09;99931.16;2104337;28;47116;-63
2022/08/15 02:49:52;;;;;;;;;22.20;20.00;;;;;24.38;55.02;99929.56;2105072;28;47595;-62
2022/08/15 02:50:53;;;;;;;;;18.00;17.20;;;;;24.38;54.99;99926.84;2105675;27;47781;-64
2022/08/15 02:51:57;;;;;;;;;14.40;14.40;;;;;24.38;54.90;99926.84;2104905;27;47475;-63
2022/08/15 02:53:00;;;;;;;;;22.00;21.40;;;;;24.37;55.01;99930.56;2105051;27;47470;-64
2022/08/15 02:54:00;;;;;;;;;23.20;23.00;;;;;24.38;55.31;99924.13;2104425;28;47354;-64
2022/08/15 02:55:01;;;;;;;;;19.25;19.25;;;;;24.38;54.92;99923.28;2097357;28;47914;-63
2022/08/15 02:56:06;;;;;;;;;23.75;22.50;;;;;24.36;54.87;99921.56;2096153;28;47395;-63
2022/08/15 02:57:06;;;;;;;;;22.80;21.80;;;;;24.35;54.92;99919.84;2104384;28;47861;-62
2022/08/15 02:58:09;;;;;;;;;22.50;20.25;;;;;24.34;54.86;99926.28;2104987;27;47298;-63
2022/08/15 02:59:11;;;;;;;;;20.40;19.60;;;;;24.34;54.66;99929.00;2105172;27;47798;-64
2022/08/15 03:00:17;;;;;;;;;20.00;20.00;;;;;24.32;55.00;99931.00;2105247;28;45504;-63
2022/08/15 03:01:20;;;;;;;;;19.40;18.20;;;;;24.33;55.07;99932.72;2105010;27;47488;-63
2022/08/15 03:02:20;;;;;;;;;24.00;22.00;;;;;24.33;54.72;99927.28;2104355;28;47216;-64
2022/08/15 03:03:21;;;;;;;;;17.75;17.75;;;;;24.34;54.81;99920.84;2104833;28;45008;-62
2022/08/15 03:04:23;;;;;;;;;18.00;17.50;;;;;24.34;54.84;99926.28;2105010;28;46954;-64
2022/08/15 03:05:27;;;;;;;;;19.00;19.00;;;;;24.36;55.05;99936.97;2105480;27;47721;-64
2022/08/15 03:06:32;;;;;;;;;19.40;19.40;;;;;24.36;54.79;99927.00;2105029;28;47364;-63
2022/08/15 03:07:33;;;;;;;;;20.20;19.60;;;;;24.36;54.69;99918.84;2105145;27;47414;-63
2022/08/15 03:08:37;;;;;;;;;18.00;17.25;;;;;24.35;54.41;99919.84;2104904;27;47577;-63
2022/08/15 03:09:38;;;;;;;;;19.00;19.00;;;;;24.35;54.78;99917.16;2105058;27;47594;-64
2022/08/15 03:10:40;;;;;;;;;21.75;21.00;;;;;24.35;54.72;99919.00;2095382;28;47788;-64
2022/08/15 03:11:43;;;;;;;;;15.20;15.20;;;;;24.35;54.86;99919.84;2095744;28;47185;-64
2022/08/15 03:12:55;;;;;;;;;22.20;22.20;;;;;24.36;54.44;99910.72;2105105;27;47257;-65
2022/08/15 03:13:56;;;;;;;;;18.00;18.00;;;;;24.36;54.67;99912.56;2105018;27;47669;-63
2022/08/15 03:14:56;;;;;;;;;18.50;17.50;;;;;24.38;54.46;99915.16;2104847;27;47288;-62
2022/08/15 03:15:58;;;;;;;;;22.00;20.50;;;;;24.40;54.79;99921.31;2105021;27;47596;-64
2022/08/15 03:16:59;;;;;;;;;22.00;20.60;;;;;24.38;54.67;99913.28;2104900;28;47670;-63
2022/08/15 03:18:00;;;;;;;;;18.40;18.20;;;;;24.38;54.68;99917.84;2104945;27;48191;-64
2022/08/15 03:19:02;;;;;;;;;19.80;19.40;;;;;24.38;54.61;99916.00;2104728;27;47647;-65
2022/08/15 03:20:05;;;;;;;;;16.20;14.40;;;;;24.39;54.48;99911.44;2105000;27;47865;-63
2022/08/15 03:21:08;;;;;;;;;18.60;18.60;;;;;24.40;54.32;99911.31;2105208;27;47433;-64
2022/08/15 03:22:08;;;;;;;;;18.60;18.00;;;;;24.40;54.29;99915.88;2104858;27;47483;-64
2022/08/15 03:23:09;;;;;;;;;19.50;19.25;;;;;24.38;54.63;99912.44;2104842;27;47767;-64
2022/08/15 03:24:10;;;;;;;;;21.00;20.00;;;;;24.40;54.66;99924.03;2104429;28;47622;-65
2022/08/15 03:25:12;;;;;;;;;17.40;17.40;;;;;24.39;54.76;99916.84;2104165;28;47875;-64
2022/08/15 03:26:12;;;;;;;;;16.60;16.60;;;;;24.38;55.16;99912.44;2104919;27;47663;-63
2022/08/15 03:27:13;;;;;;;;;25.00;22.50;;;;;24.36;54.48;99916.16;2104674;27;47792;-65
2022/08/15 03:28:13;;;;;;;;;23.25;20.25;;;;;24.38;54.54;99928.72;2120521;27;47832;-65
2022/08/15 03:29:18;;;;;;;;;21.00;20.25;;;;;24.37;54.68;99914.28;2120648;27;47166;-64
2022/08/15 03:30:19;;;;;;;;;18.00;17.40;;;;;24.36;54.65;99910.72;2104764;27;47460;-65
2022/08/15 03:31:20;;;;;;;;;21.75;20.75;;;;;24.34;54.24;99904.59;2101479;28;47587;-64
2022/08/15 03:32:20;;;;;;;;;19.25;19.25;;;;;24.36;54.80;99908.00;2103638;28;47697;-64
2022/08/15 03:33:20;;;;;;;;;18.75;18.75;;;;;24.36;54.87;99904.44;2105220;28;47568;-63
2022/08/15 03:34:26;;;;;;;;;22.75;21.50;;;;;24.35;54.64;99909.00;2104833;27;47266;-62
2022/08/15 03:35:30;;;;;;;;;17.40;17.40;;;;;24.36;54.87;99915.28;2104814;27;47519;-64
2022/08/15 03:36:30;;;;;;;;;23.20;23.00;;;;;24.33;54.73;99912.88;2104923;27;47631;-62
2022/08/15 03:37:30;;;;;;;;;23.25;22.00;;;;;24.33;55.06;99913.72;2104981;27;47730;-63
2022/08/15 03:38:31;;;;;;;;;20.25;19.50;;;;;24.32;55.00;99914.72;2105007;27;47218;-64
2022/08/15 03:39:31;;;;;;;;;23.25;23.25;;;;;24.31;54.94;99910.31;2104444;28;47127;-63
2022/08/15 03:40:34;;;;;;;;;16.25;14.75;;;;;24.31;55.11;99913.00;2104061;28;47349;-64
2022/08/15 03:41:35;;;;;;;;;22.00;22.00;;;;;24.31;55.24;99912.16;2104890;27;47962;-64
2022/08/15 03:42:35;;;;;;;;;23.00;21.00;;;;;24.31;55.07;99912.16;2105208;27;48000;-63
2022/08/15 03:43:37;;;;;;;;;25.75;25.00;;;;;24.31;55.31;99913.00;2103965;27;47255;-63
2022/08/15 03:44:37;;;;;;;;;23.00;23.00;;;;;24.28;55.20;99910.56;2104272;27;47765;-62
2022/08/15 03:45:50;;;;;;;;;21.75;20.00;;;;;24.29;55.23;99911.41;2104694;27;47348;-64
2022/08/15 03:46:51;;;;;;;;;24.80;23.00;;;;;24.29;55.26;99911.41;2104550;27;47926;-63
2022/08/15 03:47:52;;;;;;;;;24.50;23.00;;;;;24.27;55.30;99903.41;2104869;27;47393;-64
2022/08/15 03:48:54;;;;;;;;;23.50;22.25;;;;;24.27;55.27;99910.69;2104515;27;47417;-64
2022/08/15 03:49:56;;;;;;;;;21.00;20.40;;;;;24.27;55.42;99916.13;2104732;27;48173;-63
2022/08/15 03:50:58;;;;;;;;;23.40;22.40;;;;;24.26;55.46;99909.81;2105117;27;47587;-62
2022/08/15 03:52:05;;;;;;;;;22.40;22.40;;;;;24.28;55.26;99910.56;2104801;27;46139;-63
2022/08/15 03:53:07;;;;;;;;;20.40;19.60;;;;;24.29;55.34;99914.13;2103931;28;47447;-64
2022/08/15 03:54:07;;;;;;;;;23.80;22.40;;;;;24.30;55.55;99907.72;2104518;28;47501;-63
2022/08/15 03:55:08;;;;;;;;;21.50;21.50;;;;;24.31;55.71;99909.44;2104689;27;47404;-63
2022/08/15 03:56:08;;;;;;;;;19.25;18.50;;;;;24.31;55.29;99901.31;2105136;27;47692;-63
2022/08/15 03:57:08;;;;;;;;;23.00;19.50;;;;;24.32;55.30;99905.72;2104404;27;47603;-63
2022/08/15 03:58:10;;;;;;;;;22.00;22.00;;;;;24.32;55.51;99911.16;2104703;27;47126;-63
2022/08/15 03:59:10;;;;;;;;;20.80;20.60;;;;;24.31;55.34;99906.72;2104843;27;47295;-62
2022/08/15 04:00:13;;;;;;;;;21.50;20.75;;;;;24.31;55.17;99907.59;2104609;27;47195;-63
2022/08/15 04:01:21;;;;;;;;;19.80;19.80;;;;;24.30;55.54;99910.44;2104642;27;47347;-63
2022/08/15 04:02:24;;;;;;;;;24.20;23.80;;;;;24.30;55.60;99907.72;2096154;28;48101;-63
2022/08/15 04:03:28;;;;;;;;;20.00;18.20;;;;;24.30;55.47;99905.88;2102147;28;47567;-64
2022/08/15 04:04:29;;;;;;;;;26.60;25.60;;;;;24.31;55.22;99904.03;2104608;28;47232;-60
2022/08/15 04:05:30;;;;;;;;;23.00;22.50;;;;;24.31;55.48;99906.72;2104210;28;47323;-63
2022/08/15 04:06:30;;;;;;;;;23.00;22.25;;;;;24.32;55.23;99901.16;2104011;28;46798;-65
2022/08/15 04:07:33;;;;;;;;;22.50;21.50;;;;;24.33;55.16;99900.16;2104395;27;47760;-63
2022/08/15 04:08:34;;;;;;;;;23.20;23.20;;;;;24.34;55.12;99898.31;2120650;27;47571;-64
2022/08/15 04:09:34;;;;;;;;;22.00;20.50;;;;;24.34;55.37;99893.75;2120088;27;47689;-64
2022/08/15 04:10:36;;;;;;;;;20.25;20.00;;;;;24.34;54.94;99893.75;2104613;27;47379;-64
2022/08/15 04:11:37;;;;;;;;;18.80;18.80;;;;;24.34;55.16;99896.44;2105242;27;47416;-63
2022/08/15 04:12:40;;;;;;;;;21.25;21.00;;;;;24.35;55.02;99894.59;2104488;28;47767;-63
2022/08/15 04:13:42;;;;;;;;;20.00;18.80;;;;;24.34;54.63;99885.59;2104902;27;47627;-62
2022/08/15 04:14:42;;;;;;;;;19.00;18.60;;;;;24.35;54.46;99886.47;2104445;28;47434;-62
2022/08/15 04:15:43;;;;;;;;;17.50;17.50;;;;;24.33;54.50;99889.31;2104603;27;46782;-63
2022/08/15 04:16:44;;;;;;;;;17.50;17.50;;;;;24.33;54.58;99889.31;2104764;27;47221;-62
2022/08/15 04:17:44;;;;;;;;;16.20;15.80;;;;;24.33;54.69;99891.19;2104560;27;47947;-63
2022/08/15 04:18:44;;;;;;;;;21.00;21.00;;;;;24.31;54.53;99888.59;2104590;27;47378;-62
2022/08/15 04:19:45;;;;;;;;;21.50;19.50;;;;;24.32;54.53;99893.03;2106202;27;46705;-62
2022/08/15 04:20:47;;;;;;;;;17.00;16.25;;;;;24.33;54.45;99883.03;2106134;27;48226;-61
2022/08/15 04:21:49;;;;;;;;;22.00;19.80;;;;;24.33;54.65;99883.03;2104314;27;47470;-64
2022/08/15 04:22:50;;;;;;;;;23.00;22.40;;;;;24.34;54.63;99884.75;2105045;27;45943;-61
2022/08/15 04:23:50;;;;;;;;;17.80;17.80;;;;;24.34;54.48;99884.75;2104463;27;47895;-64
2022/08/15 04:24:51;;;;;;;;;20.25;20.25;;;;;24.32;54.39;99878.63;2104557;27;47274;-63
2022/08/15 04:25:51;;;;;;;;;19.50;18.75;;;;;24.31;54.64;99877.75;2104482;27;47509;-63
2022/08/15 04:26:52;;;;;;;;;21.75;21.75;;;;;24.31;54.39;99887.75;2104864;27;47621;-64
2022/08/15 04:27:56;;;;;;;;;21.50;20.75;;;;;24.30;54.46;99884.19;2103835;28;47049;-62
2022/08/15 04:28:57;;;;;;;;;17.60;17.60;;;;;24.31;54.52;99885.91;2103851;28;47499;-64
2022/08/15 04:29:57;;;;;;;;;18.50;18.00;;;;;24.31;54.85;99888.59;2104487;27;47249;-64
2022/08/15 04:31:01;;;;;;;;;19.20;19.20;;;;;24.31;54.67;99891.31;2104289;27;47200;-64
2022/08/15 04:32:02;;;;;;;;;20.20;19.80;;;;;24.27;55.01;99892.56;2104339;28;47419;-63
2022/08/15 04:33:15;;;;;;;;;22.50;21.50;;;;;24.23;54.78;99892.97;2104444;27;47596;-63
2022/08/15 04:34:15;;;;;;;;;22.80;22.40;;;;;24.20;54.61;99899.53;2104448;27;47419;-64
2022/08/15 04:35:16;;;;;;;;;21.00;20.50;;;;;24.17;54.79;99899.84;2104533;27;47791;-63
2022/08/15 04:36:18;;;;;;;;;17.00;17.00;;;;;24.17;54.78;99904.41;2104587;27;47616;-63
2022/08/15 04:37:19;;;;;;;;;17.40;16.80;;;;;24.17;54.68;99898.97;2104294;27;47822;-62
2022/08/15 04:38:20;;;;;;;;;16.75;16.75;;;;;24.16;54.83;99902.69;2104399;27;47659;-61
2022/08/15 04:39:21;;;;;;;;;19.60;19.60;;;;;24.14;54.43;99893.81;2105019;27;47445;-63
2022/08/15 04:40:21;;;;;;;;;20.50;20.25;;;;;24.14;54.53;99902.84;2104318;27;47619;-63
2022/08/15 04:41:21;;;;;;;;;20.50;15.50;;;;;24.15;54.60;99903.69;2104534;27;47472;-63
2022/08/15 04:42:24;;;;;;;;;15.25;15.25;;;;;24.15;54.50;99900.97;2103940;27;47370;-63
2022/08/15 04:43:25;;;;;;;;;19.00;17.60;;;;;24.15;54.30;99900.97;2104943;27;48244;-64
2022/08/15 04:44:25;;;;;;;;;20.25;20.25;;;;;24.16;54.52;99897.25;2104439;27;46170;-63
2022/08/15 04:45:27;;;;;;;;;18.50;18.50;;;;;24.17;54.62;99890.84;2104598;27;47479;-63
2022/08/15 04:46:28;;;;;;;;;20.60;20.60;;;;;24.19;54.55;99892.41;2104510;27;47580;-63
2022/08/15 04:47:28;;;;;;;;;19.75;18.00;;;;;24.20;54.25;99894.13;2104421;28;47712;-63
2022/08/15 04:48:28;;;;;;;;;19.50;18.25;;;;;24.21;54.47;99898.53;2104268;27;48065;-63
2022/08/15 04:49:30;;;;;;;;;18.00;17.50;;;;;24.20;54.43;99894.13;2104462;27;47824;-60
2022/08/15 04:50:34;;;;;;;;;17.60;17.60;;;;;24.20;54.54;99899.53;2103729;28;47893;-64
2022/08/15 04:51:37;;;;;;;;;19.20;18.20;;;;;24.19;54.34;99899.69;2095823;28;47612;-64